createdAt,value
2018-12-29T00:03:40.067Z,39.37
2018-12-29T00:08:44.540Z,39.20
2018-12-29T00:13:55.928Z,40.77
2018-12-29T00:19:00.179Z,38.83
2018-12-29T00:24:07.141Z,41.00
2018-12-29T00:29:11.487Z,41.77
2018-12-29T00:34:16.185Z,43.00
2018-12-29T00:39:20.510Z,40.57
2018-12-29T00:44:24.755Z,37.23
2018-12-29T00:49:48.159Z,41.03
2018-12-29T00:54:52.405Z,35.03
2018-12-29T00:59:56.784Z,37.63
2018-12-29T01:05:01.383Z,34.87
2018-12-29T01:15:30.349Z,34.57
2018-12-29T01:20:53.672Z,35.90
2018-12-29T01:25:57.923Z,38.37
2018-12-29T01:31:21.230Z,33.97
2018-12-29T01:36:25.833Z,37.93
2018-12-29T01:41:49.163Z,39.23
2018-12-29T01:46:53.575Z,34.70
2018-12-29T01:52:16.910Z,36.00
2018-12-29T01:57:40.222Z,38.33
2018-12-29T02:03:03.579Z,32.53
2018-12-29T02:08:26.919Z,34.50
2018-12-29T02:13:43.819Z,37.50
2018-12-29T02:18:48.292Z,35.47
2018-12-29T02:24:11.699Z,34.63
2018-12-29T02:29:16.024Z,38.80
2018-12-29T02:34:20.300Z,34.07
2018-12-29T02:39:24.938Z,37.70
2018-12-29T02:44:48.530Z,32.20
2018-12-29T02:49:53.938Z,36.80
2018-12-29T02:55:17.557Z,33.37
2018-12-29T03:00:40.990Z,35.40
2018-12-29T03:05:45.221Z,30.90
2018-12-29T03:11:09.274Z,37.13
2018-12-29T03:16:27.988Z,40.00
2018-12-29T03:21:32.226Z,36.47
2018-12-29T03:26:36.732Z,35.97
2018-12-29T03:31:41.077Z,30.67
2018-12-29T03:36:45.346Z,32.97
2018-12-29T03:41:49.779Z,30.80
2018-12-29T03:46:54.403Z,33.43
2018-12-29T03:51:58.922Z,29.70
2018-12-29T03:57:03.183Z,28.20
2018-12-29T04:02:07.440Z,27.47
2018-12-29T04:07:30.757Z,31.33
2018-12-29T04:12:37.551Z,30.83
2018-12-29T04:17:42.114Z,31.63
2018-12-29T04:22:46.376Z,32.97
2018-12-29T04:27:50.652Z,36.00
2018-12-29T04:32:54.909Z,33.83
2018-12-29T04:37:59.153Z,32.13
2018-12-29T04:43:03.561Z,31.67
2018-12-29T04:48:07.822Z,32.67
2018-12-29T04:53:12.101Z,35.40
2018-12-29T04:58:16.810Z,32.17
2018-12-29T05:03:21.063Z,33.73
2018-12-29T05:08:25.576Z,35.10
2018-12-29T05:13:29.834Z,34.07
2018-12-29T05:18:34.311Z,36.77
2018-12-29T05:23:38.551Z,34.73
2018-12-29T05:28:42.796Z,31.70
2018-12-29T05:34:06.116Z,36.77
2018-12-29T05:39:10.739Z,31.90
2018-12-29T05:44:15.258Z,30.70
2018-12-29T05:49:19.739Z,29.03
2018-12-29T05:54:24.070Z,31.07
2018-12-29T05:59:28.794Z,32.83
2018-12-29T06:04:33.291Z,32.87
2018-12-29T06:09:37.913Z,28.97
2018-12-29T06:15:01.363Z,31.13
2018-12-29T06:20:05.879Z,28.87
2018-12-29T06:25:10.319Z,31.13
2018-12-29T06:30:14.570Z,31.03
2018-12-29T06:35:38.167Z,31.57
2018-12-29T06:40:42.489Z,33.63
2018-12-29T06:45:46.866Z,31.70
2018-12-29T06:50:51.100Z,27.63
2018-12-29T06:56:14.498Z,27.70
2018-12-29T07:01:18.898Z,29.53
2018-12-29T07:06:23.235Z,34.30
2018-12-29T07:11:27.843Z,30.80
2018-12-29T07:16:32.192Z,31.97
2018-12-29T07:21:36.582Z,29.43
2018-12-29T07:26:40.898Z,37.47
2018-12-29T07:31:45.166Z,32.23
2018-12-29T07:36:49.416Z,34.30
2018-12-29T07:41:53.680Z,36.07
2018-12-29T07:46:58.024Z,31.70
2018-12-29T07:52:02.276Z,35.50
2018-12-29T07:57:06.830Z,31.67
2018-12-29T08:02:30.155Z,39.63
2018-12-29T08:07:34.398Z,34.30
2018-12-29T08:12:57.736Z,36.47
2018-12-29T08:18:01.980Z,32.47
2018-12-29T08:33:48.768Z,28.23
2018-12-29T08:38:53.026Z,32.70
2018-12-29T08:44:16.359Z,29.27
2018-12-29T08:49:20.616Z,31.20
2018-12-29T08:54:43.942Z,33.43
2018-12-29T08:59:48.211Z,29.73
2018-12-29T09:04:52.559Z,34.17
2018-12-29T09:09:56.814Z,32.57
2018-12-29T09:15:01.145Z,29.07
2018-12-29T09:20:05.959Z,30.77
2018-12-29T09:25:10.234Z,32.97
2018-12-29T09:30:14.492Z,31.17
2018-12-29T09:35:37.811Z,30.50
2018-12-29T09:40:42.142Z,31.33
2018-12-29T09:46:05.484Z,31.57
2018-12-29T09:51:09.824Z,31.80
2018-12-29T09:56:14.251Z,35.60
2018-12-29T10:01:18.506Z,34.83
2018-12-29T10:06:22.761Z,38.30
2018-12-29T10:11:27.165Z,36.80
2018-12-29T10:16:50.475Z,36.00
2018-12-29T10:21:54.918Z,32.67
2018-12-29T10:26:59.214Z,35.40
2018-12-29T10:32:03.473Z,27.40
2018-12-29T10:37:26.787Z,24.60
2018-12-29T10:42:31.129Z,22.50
2018-12-29T10:47:35.441Z,24.10
2018-12-29T10:52:39.874Z,23.50
2018-12-29T10:57:44.297Z,23.10
2018-12-29T11:02:48.567Z,21.47
2018-12-29T11:07:52.945Z,20.40
2018-12-29T11:12:57.267Z,22.40
2018-12-29T11:18:01.730Z,21.77
2018-12-29T11:23:06.063Z,24.17
2018-12-29T11:28:10.431Z,23.67
2018-12-29T11:33:15.123Z,20.80
2018-12-29T11:38:19.373Z,22.70
2018-12-29T11:43:24.046Z,24.97
2018-12-29T11:48:28.426Z,19.53
2018-12-29T11:53:32.680Z,20.43
2018-12-29T11:58:56.005Z,23.13
2018-12-29T12:04:00.667Z,19.03
2018-12-29T12:09:25.405Z,18.03
2018-12-29T12:14:29.658Z,18.43
2018-12-29T12:19:34.003Z,20.63
2018-12-29T12:24:38.366Z,18.47
2018-12-29T12:29:42.859Z,21.97
2018-12-29T12:34:47.294Z,21.97
2018-12-29T12:39:51.782Z,21.03
2018-12-29T12:44:56.382Z,18.90
2018-12-29T12:50:00.878Z,22.80
2018-12-29T12:55:06.094Z,20.97
2018-12-29T13:00:29.418Z,23.10
2018-12-29T13:05:54.761Z,23.33
2018-12-29T13:10:59.121Z,22.80
2018-12-29T13:16:22.499Z,21.17
2018-12-29T13:21:45.936Z,21.50
2018-12-29T13:27:09.272Z,20.60
2018-12-29T13:32:26.551Z,21.67
2018-12-29T13:37:31.083Z,24.20
2018-12-29T13:42:54.728Z,20.90
2018-12-29T13:47:59.436Z,20.50
2018-12-29T13:53:03.710Z,21.00
2018-12-29T13:58:08.118Z,20.80
2018-12-29T14:03:31.941Z,18.73
2018-12-29T14:08:55.384Z,18.30
2018-12-29T14:14:18.720Z,21.10
2018-12-29T14:19:22.974Z,19.23
2018-12-29T14:24:27.222Z,18.07
2018-12-29T14:29:33.274Z,20.43
2018-12-29T14:34:50.414Z,16.97
2018-12-29T14:39:54.867Z,16.13
2018-12-29T14:45:00.184Z,19.90
2018-12-29T14:50:05.040Z,28.07
2018-12-29T14:55:28.454Z,22.60
2018-12-29T15:00:32.874Z,18.30
2018-12-29T15:05:38.912Z,18.23
2018-12-29T15:10:43.246Z,17.27
2018-12-29T15:15:48.024Z,21.27
2018-12-29T15:21:13.073Z,21.23
2018-12-29T15:26:17.707Z,22.73
2018-12-29T15:31:22.278Z,19.90
2018-12-29T15:36:26.725Z,18.80
2018-12-29T15:41:31.301Z,18.63
2018-12-29T15:46:37.295Z,23.03
2018-12-29T15:51:42.012Z,26.73
2018-12-29T15:57:05.396Z,19.30
2018-12-29T16:02:09.668Z,20.57
2018-12-29T16:07:14.102Z,23.73
2018-12-29T16:12:18.888Z,22.50
2018-12-29T16:17:23.301Z,21.87
2018-12-29T16:22:28.359Z,19.43
2018-12-29T16:27:32.899Z,24.30
2018-12-29T16:32:37.516Z,24.93
2018-12-29T16:37:41.960Z,24.13
2018-12-29T16:43:05.415Z,27.17
2018-12-29T16:48:09.851Z,18.70
2018-12-29T16:53:14.602Z,23.77
2018-12-29T16:58:18.993Z,21.40
2018-12-29T17:03:42.647Z,24.37
2018-12-29T17:08:46.912Z,23.60
2018-12-29T17:13:51.143Z,23.80
2018-12-29T17:19:15.057Z,25.97
2018-12-29T17:24:39.603Z,27.43
2018-12-29T17:29:45.825Z,23.87
2018-12-29T17:34:50.657Z,17.37
2018-12-29T17:39:55.188Z,21.83
2018-12-29T17:44:59.995Z,21.63
2018-12-29T17:50:23.703Z,17.60
2018-12-29T17:55:47.265Z,19.73
2018-12-29T18:01:10.666Z,18.17
2018-12-29T18:06:14.992Z,23.17
2018-12-29T18:11:38.413Z,14.57
2018-12-29T18:16:42.784Z,15.63
2018-12-29T18:21:48.778Z,16.67
2018-12-29T18:26:53.269Z,15.77
2018-12-29T18:32:16.592Z,15.23
2018-12-29T18:37:39.916Z,11.47
2018-12-29T18:42:44.398Z,11.73
2018-12-29T18:47:48.631Z,12.17
2018-12-29T18:53:12.220Z,9.47
2018-12-29T18:58:16.663Z,12.23
2018-12-29T19:03:39.986Z,14.47
2018-12-29T19:09:04.234Z,12.03
2018-12-29T19:14:09.051Z,15.43
2018-12-29T19:19:13.285Z,11.57
2018-12-29T19:24:17.840Z,14.93
2018-12-29T19:29:22.116Z,14.67
2018-12-29T19:34:26.679Z,15.17
2018-12-29T19:39:31.270Z,17.30
2018-12-29T19:44:35.855Z,18.17
2018-12-29T19:49:40.332Z,15.20
2018-12-29T19:54:44.677Z,14.07
2018-12-29T20:00:09.522Z,12.40
2018-12-29T20:05:14.032Z,11.37
2018-12-29T20:10:37.395Z,13.30
2018-12-29T20:15:43.354Z,10.80
2018-12-29T20:20:47.772Z,13.93
2018-12-29T20:25:52.522Z,9.17
2018-12-29T20:30:57.091Z,10.47
2018-12-29T20:36:01.806Z,10.43
2018-12-29T20:41:06.133Z,10.73
2018-12-29T20:46:12.220Z,12.13
2018-12-29T20:51:16.544Z,12.97
2018-12-29T20:56:39.856Z,10.83
2018-12-29T21:02:04.004Z,9.23
2018-12-29T21:07:08.255Z,11.17
2018-12-29T21:12:12.614Z,10.30
2018-12-29T21:17:17.059Z,13.90
2018-12-29T21:22:21.933Z,12.20
2018-12-29T21:27:26.455Z,11.13
2018-12-29T21:32:30.786Z,18.27
2018-12-29T21:37:35.216Z,18.33
2018-12-29T21:42:39.629Z,15.37
2018-12-29T21:47:44.037Z,14.50
2018-12-29T21:52:48.277Z,15.77
2018-12-29T21:57:52.961Z,19.27
2018-12-29T22:02:57.498Z,19.13
2018-12-29T22:08:21.368Z,18.90
2018-12-29T22:13:25.827Z,16.07
2018-12-29T22:18:30.711Z,15.00
2018-12-29T22:23:34.992Z,16.83
2018-12-29T22:28:39.479Z,17.13
2018-12-29T22:34:02.898Z,23.10
2018-12-29T22:39:07.982Z,17.83
2018-12-29T22:44:12.677Z,21.80
2018-12-29T22:49:36.169Z,20.80
2018-12-29T22:54:40.692Z,20.80
2018-12-29T22:59:45.979Z,22.87
2018-12-29T23:04:50.762Z,18.13
2018-12-29T23:09:56.739Z,23.17
2018-12-29T23:15:01.159Z,21.20
2018-12-29T23:20:05.568Z,19.83
2018-12-29T23:25:11.553Z,17.47
2018-12-29T23:30:16.095Z,10.57
2018-12-29T23:35:20.636Z,14.47
2018-12-29T23:40:25.178Z,17.47
2018-12-29T23:45:29.510Z,25.83
2018-12-29T23:50:33.911Z,11.60
2018-12-29T23:55:38.347Z,18.30
